Time;durP1;ratioP1;P1;durP2;ratioP2;P2;SDS_P1;SDS_P2;PMS_P1;PMS_P2;Temp;Humidity;BMP_temperature;BMP_pressure;BME280_temperature;BME280_humidity;BME280_pressure;Samples;Min_cycle;Max_cycle;Signal;HPM_P1;HPM_P2
2022/07/18 00:02:17;;;;;;;4.63;3.00;;;;;;;14.12;56.22;98354.59;10335715;28;20061;-55
2022/07/18 00:07:16;;;;;;;3.67;2.60;;;;;;;13.90;57.87;98364.28;10334301;28;20065;-55
2022/07/18 00:12:15;;;;;;;4.75;2.88;;;;;;;13.82;58.04;98365.19;10350190;28;20037;-54
2022/07/18 00:17:14;;;;;;;5.25;3.08;;;;;;;13.77;58.86;98363.47;10375745;28;20076;-55
2022/07/18 00:22:13;;;;;;;5.88;4.10;;;;;;;13.69;60.57;98362.63;10375487;28;20036;-55
2022/07/18 00:27:12;;;;;;;8.02;4.95;;;;;;;13.53;60.97;98350.47;10375520;28;20021;-55
2022/07/18 00:32:11;;;;;;;9.50;4.82;;;;;;;13.56;61.30;98368.75;10375107;28;20500;-54
2022/07/18 00:37:10;;;;;;;10.38;4.75;;;;;;;13.51;61.87;98376.53;10374690;28;20047;-54
2022/07/18 00:42:09;;;;;;;6.90;3.92;;;;;;;13.47;61.76;98368.72;10374892;28;20084;-55
2022/07/18 00:47:08;;;;;;;8.60;3.92;;;;;;;13.44;61.76;98374.81;10375306;28;20037;-55
2022/07/18 00:52:07;;;;;;;6.20;3.67;;;;;;;13.40;61.71;98378.34;10374198;28;20064;-55
2022/07/18 00:57:06;;;;;;;7.20;3.90;;;;;;;13.40;61.48;98377.44;10374110;28;20035;-55
2022/07/18 01:02:05;;;;;;;5.03;3.25;;;;;;;13.36;61.29;98382.69;10373954;28;20072;-55
2022/07/18 01:07:04;;;;;;;5.65;3.58;;;;;;;13.32;61.81;98374.88;10373577;28;20055;-55
2022/07/18 01:12:05;;;;;;;5.18;3.22;;;;;;;13.23;63.10;98378.34;10373771;28;20025;-55
2022/07/18 01:17:13;;;;;;;9.35;3.75;;;;;;;13.11;63.09;98386.19;10373426;28;20068;-54
2022/07/18 01:22:14;;;;;;;6.13;2.90;;;;;;;13.00;61.79;98377.50;10373275;28;20530;-54
2022/07/18 01:27:18;;;;;;;6.50;2.97;;;;;;;12.80;62.61;98364.50;10372968;28;20057;-54
2022/07/18 01:32:18;;;;;;;5.05;2.88;;;;;;;12.68;62.55;98392.28;10372664;28;20079;-55
2022/07/18 01:37:17;;;;;;;5.20;3.17;;;;;;;12.48;62.74;98389.63;10372348;28;20107;-55
2022/07/18 01:42:17;;;;;;;5.75;2.80;;;;;;;12.18;64.43;98394.75;10372990;28;20048;-53
2022/07/18 01:47:16;;;;;;;5.18;4.05;;;;;;;11.81;65.85;98379.91;10372070;28;20071;-54
2022/07/18 01:52:16;;;;;;;9.52;6.38;;;;;;;11.71;66.25;98387.63;10372380;28;20512;-54
2022/07/18 01:57:15;;;;;;;12.50;10.35;;;;;;;11.67;67.86;98397.16;10372369;28;20087;-54
2022/07/18 02:02:14;;;;;;;13.38;11.20;;;;;;;11.50;67.62;98383.19;10372250;28;20041;-54
2022/07/18 02:07:13;;;;;;;8.73;6.63;;;;;;;11.53;67.60;98396.25;10371850;28;20515;-54
2022/07/18 02:12:12;;;;;;;8.48;6.47;;;;;;;11.57;67.15;98416.16;10371999;28;20018;-54
2022/07/18 02:17:12;;;;;;;5.38;3.97;;;;;;;11.55;66.80;98412.69;10371453;28;20033;-54
2022/07/18 02:22:11;;;;;;;5.95;3.55;;;;;;;11.53;67.40;98399.69;10371932;28;20059;-54
2022/07/18 02:27:10;;;;;;;4.00;3.20;;;;;;;11.51;67.98;98416.16;10372052;28;20061;-54
2022/07/18 02:32:09;;;;;;;7.82;3.97;;;;;;;11.45;68.69;98401.38;10379635;28;20063;-54
2022/07/18 02:37:08;;;;;;;9.98;5.22;;;;;;;11.52;68.91;98412.69;10378974;28;20064;-54
2022/07/18 02:42:07;;;;;;;9.85;5.85;;;;;;;11.46;68.92;98410.91;10379415;28;20037;-54
2022/07/18 02:47:06;;;;;;;;;;;;;;;11.46;69.85;98427.38;10379464;28;20072;-54
2022/07/18 02:52:08;;;;;;;14.95;7.80;;;;;;;11.46;70.11;98426.50;10378741;28;19995;-54
2022/07/18 02:57:07;;;;;;;10.32;6.43;;;;;;;11.48;69.93;98431.69;10379168;28;20079;-54
2022/07/18 03:02:06;;;;;;;9.80;6.10;;;;;;;11.50;69.70;98437.78;10378406;28;20061;-54
2022/07/18 03:07:05;;;;;;;11.07;5.57;;;;;;;11.41;70.07;98444.69;10378663;28;20068;-54
2022/07/18 03:12:04;;;;;;;5.63;3.92;;;;;;;11.29;70.09;98441.09;10378622;28;20045;-54
2022/07/18 03:17:03;;;;;;;5.90;4.63;;;;;;;11.14;70.55;98445.34;10377638;28;20067;-54
2022/07/18 03:22:04;;;;;;;7.68;5.10;;;;;;;11.09;71.21;98456.56;10377648;28;20063;-54
2022/07/18 03:27:03;;;;;;;8.43;5.10;;;;;;;11.04;70.59;98454.78;10378242;28;20056;-54
2022/07/18 03:32:02;;;;;;;8.35;4.95;;;;;;;11.11;70.84;98454.84;10377785;28;20057;-54
2022/07/18 03:37:01;;;;;;;11.00;4.72;;;;;;;11.15;69.96;98460.06;10375333;28;20065;-54
2022/07/18 03:42:00;;;;;;;5.70;4.47;;;;;;;11.12;70.75;98453.97;10375186;28;20071;-54
2022/07/18 03:46:59;;;;;;;10.20;6.25;;;;;;;11.04;71.22;98452.19;10377574;28;20028;-54
2022/07/18 03:51:58;;;;;;;12.20;7.60;;;;;;;11.03;71.36;98471.25;10375031;28;20051;-54
2022/07/18 03:56:57;;;;;;;12.43;8.82;;;;;;;11.00;71.92;98463.41;10377210;28;20075;-55
2022/07/18 04:01:56;;;;;;;11.98;7.47;;;;;;;10.90;72.69;98468.50;10376433;28;20025;-55
2022/07/18 04:06:59;;;;;;;10.20;7.22;;;;;;;10.99;71.29;98471.19;10375920;28;20040;-55
2022/07/18 04:11:57;;;;;;;14.18;8.50;;;;;;;11.12;71.86;98474.75;10375351;28;20056;-55
2022/07/18 04:16:56;;;;;;;11.73;7.95;;;;;;;11.15;71.89;98465.28;10371679;28;20916;-55
2022/07/18 04:21:55;;;;;;;12.43;8.40;;;;;;;11.30;71.89;98472.31;10371929;28;20036;-55
2022/07/18 04:26:54;;;;;;;13.70;9.13;;;;;;;11.38;70.95;98462.81;10374468;28;20120;-55
2022/07/18 04:31:53;;;;;;;16.13;8.85;;;;;;;11.58;71.40;98464.72;10375071;28;20484;-54
2022/07/18 04:36:52;;;;;;;16.13;8.30;;;;;;;11.79;70.49;98461.38;10374300;28;20112;-55
2022/07/18 04:41:51;;;;;;;19.58;10.52;;;;;;;11.89;70.50;98461.41;10373775;28;20083;-54
2022/07/18 04:46:50;;;;;;;12.48;7.60;;;;;;;12.07;70.12;98467.56;10372644;28;20124;-55
2022/07/18 04:51:49;;;;;;;16.98;7.93;;;;;;;12.21;70.10;98478.03;10370008;28;20043;-54
2022/07/18 04:56:49;;;;;;;15.40;6.55;;;;;;;12.43;68.87;98468.59;10371414;28;20101;-55
2022/07/18 05:01:48;;;;;;;14.30;6.32;;;;;;;12.59;68.11;98470.38;10369941;28;20076;-54
2022/07/18 05:06:47;;;;;;;11.60;6.78;;;;;;;12.85;67.15;98466.97;10371131;28;20870;-54
2022/07/18 05:11:46;;;;;;;11.18;6.07;;;;;;;13.03;66.66;98464.38;10373028;28;20033;-54
2022/07/18 05:16:45;;;;;;;9.55;5.60;;;;;;;13.32;65.64;98471.31;10372443;28;20121;-54
2022/07/18 05:21:44;;;;;;;14.27;6.63;;;;;;;13.69;65.55;98473.91;10373140;28;20111;-54
2022/07/18 05:26:43;;;;;;;8.93;5.90;;;;;;;14.00;64.61;98472.09;10372687;28;20060;-54
2022/07/18 05:31:42;;;;;;;15.90;7.15;;;;;;;14.26;63.92;98469.38;10372301;28;20075;-55
2022/07/18 05:36:41;;;;;;;15.10;7.60;;;;;;;14.55;64.14;98479.69;10375278;28;20033;-55
2022/07/18 05:41:40;;;;;;;12.55;7.90;;;;;;;14.78;62.75;98474.38;10375901;28;20049;-55
2022/07/18 05:46:39;;;;;;;13.90;7.90;;;;;;;15.02;62.24;98469.84;10374966;28;20063;-55
2022/07/18 05:51:38;;;;;;;14.38;7.22;;;;;;;15.19;61.22;98475.81;10372461;28;20067;-55
2022/07/18 05:56:37;;;;;;;;;;;;;;;15.48;60.22;98464.22;10375752;28;20115;-55
2022/07/18 06:01:36;;;;;;;15.07;6.18;;;;;;;15.77;59.06;98466.56;10374783;28;19966;-55
2022/07/18 06:06:35;;;;;;;19.80;5.63;;;;;;;16.05;58.27;98461.06;10374686;28;20052;-55
2022/07/18 06:11:35;;;;;;;15.82;5.97;;;;;;;16.37;57.71;98458.06;10374620;28;20068;-55
2022/07/18 06:16:34;;;;;;;9.15;5.05;;;;;;;16.64;55.62;98467.28;10375058;28;20480;-55
2022/07/18 06:21:33;;;;;;;6.95;3.95;;;;;;;16.78;53.55;98469.69;10374919;28;20060;-55
2022/07/18 06:26:32;;;;;;;;;;;;;;;17.03;52.21;98467.63;10375012;28;20412;-56
2022/07/18 06:31:31;;;;;;;6.50;3.20;;;;;;;17.20;50.00;98472.59;10371793;28;19908;-55
2022/07/18 06:36:30;;;;;;;;;;;;;;;17.52;50.31;98468.56;10374282;28;20063;-60
2022/07/18 06:41:29;;;;;;;6.20;4.10;;;;;;;17.88;49.66;98471.44;10372211;28;19952;-56
2022/07/18 06:46:27;;;;;;;8.68;4.00;;;;;;;18.24;48.12;98467.19;10372560;28;20025;-55
2022/07/18 06:51:26;;;;;;;;;;;;;;;18.43;45.55;98472.94;10373357;28;20028;-55
2022/07/18 06:56:26;;;;;;;5.00;3.70;;;;;;;18.57;44.90;98473.53;10332138;28;20451;-55
2022/07/18 07:01:24;;;;;;;4.85;2.80;;;;;;;18.76;42.92;98470.50;10334261;28;20498;-55
2022/07/18 07:06:23;;;;;;;6.97;3.70;;;;;;;19.03;43.52;98471.63;10372562;28;20434;-56
2022/07/18 07:11:23;;;;;;;4.05;2.72;;;;;;;18.97;41.03;98462.13;10372774;28;20025;-56
2022/07/18 07:16:21;;;;;;;6.28;3.33;;;;;;;19.16;41.42;98466.97;10377477;28;20069;-56
2022/07/18 07:21:20;;;;;;;5.18;3.10;;;;;;;19.43;41.94;98461.00;10380188;28;20033;-56
2022/07/18 07:26:19;;;;;;;7.35;3.05;;;;;;;19.61;41.59;98459.69;10377402;28;20435;-56
2022/07/18 07:31:18;;;;;;;7.88;4.03;;;;;;;19.94;41.49;98474.63;10379140;28;20068;-55
2022/07/18 07:36:17;;;;;;;7.10;2.90;;;;;;;20.11;40.81;98463.63;10378314;28;20027;-56
2022/07/18 07:41:16;;;;;;;6.65;3.40;;;;;;;20.33;40.72;98461.22;10377822;28;20476;-56
2022/07/18 07:46:15;;;;;;;6.93;3.90;;;;;;;20.48;39.54;98461.69;10378340;28;20067;-56
2022/07/18 07:51:15;;;;;;;7.13;3.25;;;;;;;20.54;39.20;98444.84;10377108;28;20072;-55
2022/07/18 07:56:18;;;;;;;9.55;2.92;;;;;;;20.83;39.55;98449.19;10377122;28;20083;-56
2022/07/18 08:01:19;;;;;;;5.78;2.65;;;;;;;21.03;38.21;98453.84;10378171;28;20496;-56
2022/07/18 08:06:18;;;;;;;8.70;3.63;;;;;;;21.17;38.86;98449.88;10376730;28;20065;-56
2022/07/18 08:11:17;;;;;;;10.55;3.47;;;;;;;20.96;38.29;98443.53;10377924;28;20033;-56
2022/07/18 08:16:16;;;;;;;5.63;2.88;;;;;;;21.20;39.13;98440.09;10377500;28;20033;-56
2022/07/18 08:21:15;;;;;;;7.15;2.85;;;;;;;21.33;38.62;98437.94;10376924;28;20151;-56
2022/07/18 08:26:14;;;;;;;8.18;3.72;;;;;;;21.47;37.80;98446.25;10343660;28;20017;-56
2022/07/18 08:31:13;;;;;;;12.15;3.55;;;;;;;21.46;38.13;98441.88;10378618;28;20068;-56
2022/07/18 08:36:12;;;;;;;6.57;3.05;;;;;;;21.47;38.93;98438.31;10379530;28;20029;-56
2022/07/18 08:41:12;;;;;;;5.38;2.72;;;;;;;21.66;38.73;98446.47;10379364;28;20076;-56
2022/07/18 08:46:12;;;;;;;6.43;3.00;;;;;;;21.55;38.48;98425.72;10379111;28;20048;-56
2022/07/18 08:51:11;;;;;;;6.78;3.08;;;;;;;21.67;38.89;98432.38;10378860;28;20061;-56
2022/07/18 08:56:10;;;;;;;4.78;2.85;;;;;;;21.89;39.47;98445.66;10376520;28;20515;-56
2022/07/18 09:01:09;;;;;;;7.88;3.00;;;;;;;21.92;38.95;98442.94;10378069;28;20032;-55
2022/07/18 09:06:13;;;;;;;10.25;3.58;;;;;;;21.90;38.92;98430.69;10378080;28;20017;-55
2022/07/18 09:11:12;;;;;;;6.45;3.20;;;;;;;21.96;39.58;98439.22;10374918;28;20067;-56
2022/07/18 09:16:14;;;;;;;6.35;2.97;;;;;;;21.86;40.21;98432.56;10359546;28;20029;-56
2022/07/18 09:21:17;;;;;;;4.20;3.33;;;;;;;21.89;40.40;98432.44;10373374;28;20064;-55
2022/07/18 09:26:38;;;;;;;5.78;3.25;;;;;;;22.04;40.79;98435.47;10377103;28;20057;-54
2022/07/18 09:31:37;;;;;;;6.90;3.50;;;;;;;22.37;40.46;98423.66;10374511;28;20064;-55
2022/07/18 09:36:54;;;;;;;9.23;3.38;;;;;;;22.42;40.18;98426.13;10373477;28;20069;-55
2022/07/18 09:41:53;;;;;;;7.13;3.28;;;;;;;22.31;40.87;98423.88;10373558;28;20075;-55
2022/07/18 09:46:59;;;;;;;4.88;3.10;;;;;;;22.38;40.75;98416.59;10373414;28;20037;-56
2022/07/18 09:52:10;;;;;;;8.38;3.25;;;;;;;22.28;40.70;98418.72;10373658;28;20068;-55
2022/07/18 09:57:10;;;;;;;3.40;2.65;;;;;;;22.47;40.31;98413.59;10373686;28;20065;-54
2022/07/18 10:02:09;;;;;;;8.88;3.20;;;;;;;22.80;40.21;98400.84;10374321;28;20068;-54
2022/07/18 10:07:09;;;;;;;4.40;2.80;;;;;;;23.07;41.09;98416.53;10374364;28;20064;-56
2022/07/18 10:12:08;;;;;;;12.30;4.25;;;;;;;23.08;40.10;98398.88;10372183;28;20091;-54
2022/07/18 10:17:08;;;;;;;8.55;3.53;;;;;;;22.97;39.79;98408.09;10371105;28;20076;-55
2022/07/18 10:22:07;;;;;;;6.65;3.28;;;;;;;23.05;39.73;98405.16;10371132;28;20060;-55
2022/07/18 10:27:18;;;;;;;6.53;3.28;;;;;;;23.44;39.50;98391.13;10371838;28;20301;-55
2022/07/18 10:32:32;;;;;;;5.82;3.40;;;;;;;23.45;38.87;98384.94;10371409;28;20512;-56
2022/07/18 10:37:35;;;;;;;4.32;2.97;;;;;;;23.34;39.12;98379.22;10371509;28;20065;-56
2022/07/18 10:42:34;;;;;;;5.75;3.28;;;;;;;23.59;38.37;98379.91;10370753;28;20103;-55
2022/07/18 10:47:33;;;;;;;7.15;3.20;;;;;;;23.50;38.38;98380.31;10371150;28;20273;-57
2022/07/18 10:52:36;;;;;;;5.13;2.95;;;;;;;24.05;38.53;98372.56;10378410;28;20023;-56
2022/07/18 10:57:38;;;;;;;7.18;3.15;;;;;;;24.10;38.46;98369.69;10380991;28;20091;-57
2022/07/18 11:02:45;;;;;;;8.07;3.33;;;;;;;24.30;37.95;98360.81;10378940;28;20053;-54
2022/07/18 11:08:04;;;;;;;4.30;3.20;;;;;;;24.58;36.86;98365.69;10378540;28;20103;-56
2022/07/18 11:13:25;;;;;;;7.57;3.53;;;;;;;24.36;36.98;98354.41;10377629;28;20048;-55
2022/07/18 11:18:25;;;;;;;4.45;3.28;;;;;;;24.53;36.93;98357.09;10373733;28;20060;-55
2022/07/18 11:23:26;;;;;;;4.18;2.85;;;;;;;24.31;36.60;98356.38;10377523;28;20059;-55
2022/07/18 11:28:27;;;;;;;6.20;3.20;;;;;;;24.29;37.12;98348.50;10377299;28;20424;-55
2022/07/18 11:33:28;;;;;;;9.65;4.03;;;;;;;24.52;36.87;98346.53;10377974;28;20352;-55
2022/07/18 11:38:27;;;;;;;6.07;3.28;;;;;;;24.52;36.59;98333.28;10376894;28;20174;-55
2022/07/18 11:43:26;;;;;;;5.93;3.22;;;;;;;24.59;36.69;98334.69;10376729;28;20056;-55
2022/07/18 11:48:26;;;;;;;5.72;3.30;;;;;;;24.64;37.53;98327.38;10376632;28;20067;-55
2022/07/18 11:53:25;;;;;;;4.45;3.30;;;;;;;24.70;35.94;98321.75;10376366;28;20518;-55
2022/07/18 11:58:24;;;;;;;6.15;3.40;;;;;;;25.07;36.47;98328.78;10376293;28;20550;-55
2022/07/18 12:03:23;;;;;;;6.00;3.35;;;;;;;25.14;35.32;98305.41;10375202;28;20636;-55
2022/07/18 12:08:38;;;;;;;7.78;4.13;;;;;;;25.33;35.73;98315.94;10375815;28;20085;-55
2022/07/18 12:13:42;;;;;;;5.03;3.10;;;;;;;25.39;34.86;98302.34;10375304;28;20060;-55
2022/07/18 12:18:52;;;;;;;4.68;2.95;;;;;;;25.36;35.23;98301.63;10375391;28;20497;-55
2022/07/18 12:23:51;;;;;;;4.57;3.20;;;;;;;25.38;34.28;98303.28;10375666;28;20135;-55
2022/07/18 12:29:06;;;;;;;4.65;3.20;;;;;;;25.40;34.79;98305.84;10374772;28;20075;-55
2022/07/18 12:34:13;;;;;;;6.20;3.88;;;;;;;25.47;34.33;98308.09;10374973;28;20068;-56
2022/07/18 12:39:13;;;;;;;5.00;3.45;;;;;;;25.60;34.69;98299.50;10374524;28;20488;-56
2022/07/18 12:44:14;;;;;;;5.63;3.60;;;;;;;25.50;34.27;98296.44;10374536;28;20060;-56
2022/07/18 12:49:13;;;;;;;7.40;3.33;;;;;;;25.56;34.09;98282.88;10374560;28;20073;-56
2022/07/18 12:54:13;;;;;;;3.67;3.00;;;;;;;25.81;34.04;98281.53;10373724;28;20044;-55
2022/07/18 12:59:12;;;;;;;5.80;4.20;;;;;;;25.88;34.08;98277.63;10373875;28;20056;-55
2022/07/18 13:04:11;;;;;;;6.70;3.40;;;;;;;25.93;33.41;98279.06;10372118;28;20017;-56
2022/07/18 13:09:10;;;;;;;8.77;4.15;;;;;;;25.79;34.29;98272.81;10373529;28;20479;-55
2022/07/18 13:14:09;;;;;;;6.72;4.53;;;;;;;25.97;33.78;98265.59;10371784;28;20872;-56
2022/07/18 13:19:08;;;;;;;5.90;3.97;;;;;;;25.97;34.11;98269.13;10375305;28;20116;-56
2022/07/18 13:24:07;;;;;;;8.55;5.05;;;;;;;26.09;33.07;98260.47;10373982;28;20116;-56
2022/07/18 13:29:06;;;;;;;8.10;5.95;;;;;;;26.27;33.18;98255.06;10374795;28;20472;-56
2022/07/18 13:34:05;;;;;;;5.55;4.00;;;;;;;26.52;32.54;98262.50;10366356;28;20487;-56
2022/07/18 13:39:03;;;;;;;9.15;5.30;;;;;;;26.36;32.88;98259.88;10360844;28;20044;-56
2022/07/18 13:44:03;;;;;;;5.35;3.50;;;;;;;26.42;32.18;98251.56;10377485;28;20116;-56
2022/07/18 13:49:02;;;;;;;7.18;3.25;;;;;;;26.26;32.79;98242.72;10377759;28;20469;-56
2022/07/18 13:54:01;;;;;;;9.18;4.57;;;;;;;26.35;32.28;98258.19;10376206;28;20080;-56
2022/07/18 13:59:00;;;;;;;8.77;5.18;;;;;;;26.30;32.86;98249.56;10375653;28;20064;-56
2022/07/18 14:03:59;;;;;;;5.88;3.50;;;;;;;26.53;31.94;98241.16;10375767;28;20067;-55
2022/07/18 14:08:58;;;;;;;6.50;3.92;;;;;;;26.69;31.90;98246.41;10377126;28;20032;-56
2022/07/18 14:13:56;;;;;;;6.63;4.35;;;;;;;26.56;31.94;98242.78;10376157;28;20570;-55
2022/07/18 14:18:56;;;;;;;7.95;4.13;;;;;;;26.48;32.06;98231.69;10377467;28;20468;-55
2022/07/18 14:23:55;;;;;;;8.10;4.72;;;;;;;26.44;31.80;98239.00;10378683;28;20542;-55
2022/07/18 14:28:54;;;;;;;4.68;3.63;;;;;;;26.38;32.53;98227.88;10384476;28;20028;-56
2022/07/18 14:33:53;;;;;;;5.30;3.88;;;;;;;26.45;31.71;98239.88;10382002;28;20112;-55
2022/07/18 14:38:52;;;;;;;5.85;3.42;;;;;;;26.63;32.19;98227.28;10381939;28;20044;-56
2022/07/18 14:43:51;;;;;;;7.47;3.65;;;;;;;26.79;31.59;98223.63;10381230;28;20041;-56
2022/07/18 14:48:51;;;;;;;4.30;3.22;;;;;;;26.49;31.98;98214.81;10381269;28;20116;-56
2022/07/18 14:53:50;;;;;;;6.35;3.28;;;;;;;26.46;32.06;98207.81;10381216;28;20068;-56
2022/07/18 14:58:49;;;;;;;6.82;3.40;;;;;;;26.57;31.64;98210.72;10380854;28;20115;-56
2022/07/18 15:03:48;;;;;;;5.07;3.75;;;;;;;26.53;31.88;98213.66;10380639;28;20124;-55
2022/07/18 15:08:47;;;;;;;7.18;4.28;;;;;;;26.38;31.97;98209.25;10380236;28;20114;-55
2022/07/18 15:13:46;;;;;;;8.35;4.00;;;;;;;26.13;32.37;98206.13;10380220;28;20048;-56
2022/07/18 15:18:45;;;;;;;4.60;3.60;;;;;;;26.06;32.14;98199.44;10379881;28;20064;-56
2022/07/18 15:23:44;;;;;;;5.03;3.40;;;;;;;26.08;32.27;98199.38;10380116;28;20098;-56
2022/07/18 15:28:43;;;;;;;4.38;3.17;;;;;;;26.23;31.95;98206.53;10379790;28;20121;-55
2022/07/18 15:33:42;;;;;;;5.88;3.72;;;;;;;26.01;32.02;98200.66;10378944;28;20460;-55
2022/07/18 15:38:41;;;;;;;5.45;3.78;;;;;;;26.14;31.88;98204.34;10378323;28;20095;-55
2022/07/18 15:43:41;;;;;;;8.85;4.10;;;;;;;26.15;32.15;98201.59;10379024;28;20055;-55
2022/07/18 15:48:40;;;;;;;8.38;3.80;;;;;;;25.97;32.32;98210.59;10377463;28;20095;-55
2022/07/18 15:53:39;;;;;;;8.88;3.53;;;;;;;25.83;32.01;98203.44;10377197;28;20027;-55
2022/07/18 15:58:39;;;;;;;5.93;3.20;;;;;;;25.70;32.44;98203.25;10375585;28;20075;-55
2022/07/18 16:03:38;;;;;;;4.88;3.03;;;;;;;25.65;32.16;98194.69;10375857;28;20076;-55
2022/07/18 16:08:37;;;;;;;4.95;2.97;;;;;;;25.63;32.16;98196.56;10375082;28;20059;-55
2022/07/18 16:13:36;;;;;;;4.75;3.17;;;;;;;25.54;32.39;98205.03;10374178;28;20098;-55
2022/07/18 16:18:34;;;;;;;3.70;2.88;;;;;;;25.47;32.67;98195.66;10375705;28;20039;-55
2022/07/18 16:23:33;;;;;;;4.28;2.95;;;;;;;25.55;32.57;98188.16;10375151;28;20116;-55
2022/07/18 16:28:32;;;;;;;7.20;3.33;;;;;;;25.37;32.59;98194.44;10375823;28;20036;-54
2022/07/18 16:33:31;;;;;;;4.53;3.33;;;;;;;25.42;32.40;98201.22;10378370;28;20120;-55
2022/07/18 16:38:30;;;;;;;7.07;2.83;;;;;;;25.29;32.56;98193.06;10377892;28;20131;-55
2022/07/18 16:43:30;;;;;;;8.55;3.30;;;;;;;25.22;33.14;98197.00;10378344;28;20508;-55
2022/07/18 16:48:29;;;;;;;4.80;3.00;;;;;;;25.31;33.03;98185.84;10376825;28;20044;-55
2022/07/18 16:53:28;;;;;;;5.22;3.00;;;;;;;25.15;32.98;98189.41;10377195;28;20507;-55
2022/07/18 16:58:27;;;;;;;4.75;2.95;;;;;;;25.14;33.36;98193.88;10377022;28;20060;-55
2022/07/18 17:03:27;;;;;;;4.75;3.20;;;;;;;25.05;33.57;98181.94;10376794;28;20044;-56
2022/07/18 17:08:27;;;;;;;4.18;2.97;;;;;;;24.85;33.76;98198.03;10377298;28;20060;-56
2022/07/18 17:13:26;;;;;;;6.28;3.10;;;;;;;24.79;33.91;98198.34;10376879;28;20072;-56
2022/07/18 17:18:25;;;;;;;6.35;3.13;;;;;;;24.84;33.79;98197.16;10376761;28;20799;-56
2022/07/18 17:23:26;;;;;;;7.95;3.38;;;;;;;24.76;33.98;98204.69;10376449;28;20071;-58
2022/07/18 17:28:25;;;;;;;5.25;3.20;;;;;;;24.56;34.21;98202.19;10375347;28;20076;-56
2022/07/18 17:33:25;;;;;;;6.82;3.53;;;;;;;24.34;35.04;98207.72;10372495;28;20487;-56
2022/07/18 17:38:25;;;;;;;5.57;3.58;;;;;;;24.20;35.33;98205.75;10372210;28;20083;-55
2022/07/18 17:43:24;;;;;;;7.75;3.88;;;;;;;23.97;35.65;98196.22;10372197;28;20067;-57
2022/07/18 17:48:23;;;;;;;7.45;3.72;;;;;;;23.87;35.96;98209.06;10372602;28;20075;-56
2022/07/18 17:53:22;;;;;;;8.10;4.03;;;;;;;23.79;35.93;98205.91;10371528;28;20063;-56
2022/07/18 17:58:21;;;;;;;7.47;4.07;;;;;;;23.73;36.73;98214.16;10371640;28;20075;-56
2022/07/18 18:03:20;;;;;;;6.47;3.75;;;;;;;23.59;37.64;98213.00;10371581;28;20064;-56
2022/07/18 18:08:20;;;;;;;7.82;4.22;;;;;;;23.37;38.36;98225.47;10371395;28;20120;-56
2022/07/18 18:13:19;;;;;;;12.95;5.22;;;;;;;23.02;39.53;98219.97;10371368;28;20072;-55
2022/07/18 18:18:18;;;;;;;8.43;4.60;;;;;;;22.81;40.06;98229.69;10369843;28;20044;-57
2022/07/18 18:23:16;;;;;;;8.95;4.55;;;;;;;22.60;40.52;98236.75;10371373;28;20080;-56
2022/07/18 18:28:15;;;;;;;7.43;4.40;;;;;;;22.36;41.43;98241.25;10371069;28;20112;-56
2022/07/18 18:33:14;;;;;;;6.93;4.28;;;;;;;22.10;42.33;98245.81;10371161;28;20560;-56
2022/07/18 18:38:13;;;;;;;9.45;4.68;;;;;;;21.84;43.01;98252.09;10370594;28;20076;-56
2022/07/18 18:43:12;;;;;;;9.43;4.25;;;;;;;21.58;43.67;98263.66;10370836;28;20036;-55
2022/07/18 18:48:12;;;;;;;6.18;3.85;;;;;;;21.29;44.45;98260.31;10370942;28;20056;-57
2022/07/18 18:53:11;;;;;;;8.23;3.80;;;;;;;21.07;45.08;98273.38;10370547;28;20485;-57
2022/07/18 18:58:09;;;;;;;8.20;4.20;;;;;;;20.89;45.76;98282.81;10370287;28;20053;-56
2022/07/18 19:03:08;;;;;;;6.90;4.10;;;;;;;20.71;46.21;98286.91;10371162;28;20048;-56
2022/07/18 19:08:07;;;;;;;9.63;4.90;;;;;;;20.54;46.45;98297.19;10370345;28;20077;-56
2022/07/18 19:13:06;;;;;;;7.30;4.82;;;;;;;20.39;46.81;98300.25;10376772;28;20040;-56
2022/07/18 19:18:05;;;;;;;5.55;4.45;;;;;;;20.20;47.48;98300.84;10377447;28;20027;-57
2022/07/18 19:23:04;;;;;;;8.07;4.13;;;;;;;20.03;47.87;98308.41;10377169;28;20056;-56
2022/07/18 19:28:04;;;;;;;7.43;4.70;;;;;;;19.85;48.12;98304.53;10377504;28;20063;-56
2022/07/18 19:33:03;;;;;;;7.88;4.30;;;;;;;19.64;48.76;98300.78;10380629;28;20037;-56
2022/07/18 19:38:02;;;;;;;7.20;4.35;;;;;;;19.52;48.98;98311.63;10380031;28;20072;-56
2022/07/18 19:43:01;;;;;;;6.35;3.88;;;;;;;19.41;49.52;98309.28;10380652;28;20105;-56
2022/07/18 19:48:02;;;;;;;6.13;3.80;;;;;;;19.30;49.66;98317.50;10378758;28;20044;-56
2022/07/18 19:53:01;;;;;;;5.97;3.95;;;;;;;19.22;50.26;98324.72;10379894;28;20056;-56
2022/07/18 19:58:00;;;;;;;6.50;3.95;;;;;;;19.13;50.29;98322.31;10379581;28;20025;-56
2022/07/18 20:03:01;;;;;;;5.97;4.28;;;;;;;19.08;50.60;98332.09;10379293;28;20090;-56
2022/07/18 20:08:00;;;;;;;5.82;4.10;;;;;;;18.98;50.98;98328.84;10379508;28;20045;-56
2022/07/18 20:13:00;;;;;;;6.03;4.22;;;;;;;18.86;51.66;98332.66;10378906;28;20501;-57
2022/07/18 20:18:00;;;;;;;6.93;4.10;;;;;;;18.75;51.98;98324.19;10378971;28;20183;-57
2022/07/18 20:23:00;;;;;;;5.97;3.78;;;;;;;18.66;52.15;98332.25;10377962;28;20119;-56
2022/07/18 20:27:59;;;;;;;7.60;4.00;;;;;;;18.53;52.77;98340.44;10378434;28;20079;-56
2022/07/18 20:32:58;;;;;;;6.28;3.70;;;;;;;18.45;53.29;98339.75;10375780;28;20522;-57
2022/07/18 20:37:57;;;;;;;5.72;4.18;;;;;;;18.32;53.71;98340.94;10374327;28;20484;-57
2022/07/18 20:42:57;;;;;;;6.20;4.28;;;;;;;18.24;54.21;98340.25;10374752;28;20094;-56
2022/07/18 20:47:56;;;;;;;5.65;3.83;;;;;;;18.15;54.19;98346.56;10374175;28;20056;-56
2022/07/18 20:52:56;;;;;;;10.13;4.68;;;;;;;18.10;54.17;98351.91;10373965;28;20068;-56
2022/07/18 20:57:55;;;;;;;10.30;4.97;;;;;;;18.06;54.35;98354.63;10372405;28;20093;-56
2022/07/18 21:02:54;;;;;;;7.10;4.55;;;;;;;17.96;55.12;98353.97;10373277;28;20040;-56
2022/07/18 21:07:52;;;;;;;8.18;4.05;;;;;;;17.84;55.77;98348.97;10373427;28;20017;-56
2022/07/18 21:12:51;;;;;;;;;;;;;;;17.80;55.74;98349.94;10373841;28;20033;-56
2022/07/18 21:17:50;;;;;;;7.23;4.57;;;;;;;17.74;56.51;98357.00;10373762;28;19974;-56
2022/07/18 21:22:49;;;;;;;6.07;4.22;;;;;;;17.63;57.75;98356.34;10372934;28;20071;-56
2022/07/18 21:27:49;;;;;;;4.50;3.97;;;;;;;17.47;58.50;98368.03;10372670;28;20072;-56
2022/07/18 21:32:51;;;;;;;7.00;4.47;;;;;;;17.37;58.71;98354.25;10372526;28;20554;-56
2022/07/18 21:37:50;;;;;;;6.57;4.78;;;;;;;17.29;59.30;98359.63;10372714;28;20848;-56
2022/07/18 21:42:49;;;;;;;7.93;4.80;;;;;;;17.23;59.93;98357.13;10372362;28;20423;-56
2022/07/18 21:47:48;;;;;;;8.30;5.40;;;;;;;17.17;60.35;98354.63;10372647;28;20516;-56
2022/07/18 21:52:47;;;;;;;7.78;5.30;;;;;;;17.11;60.60;98357.34;10372605;28;20487;-56
2022/07/18 21:57:46;;;;;;;8.30;5.63;;;;;;;17.07;61.08;98353.03;10371805;28;20479;-56
2022/07/18 22:02:45;;;;;;;;;;;;;;;17.05;61.50;98353.09;10372095;28;20025;-56
2022/07/18 22:07:44;;;;;;;8.48;5.07;;;;;;;17.01;61.69;98347.91;10371935;28;19919;-56
2022/07/18 22:12:43;;;;;;;;;;;;;;;16.93;62.63;98359.41;10372197;28;20439;-55
2022/07/18 22:17:42;;;;;;;9.98;5.95;;;;;;;16.80;64.07;98347.34;10371364;28;19920;-56
2022/07/18 22:22:44;;;;;;;10.30;6.22;;;;;;;16.82;63.88;98340.38;10371924;28;20402;-55
2022/07/18 22:27:43;;;;;;;9.40;6.05;;;;;;;16.80;64.72;98344.72;10371690;28;20064;-56
2022/07/18 22:32:42;;;;;;;9.93;5.85;;;;;;;16.73;64.84;98335.25;10371075;28;20064;-56
2022/07/18 22:37:42;;;;;;;9.63;6.45;;;;;;;16.69;65.17;98336.16;10371038;28;20405;-56
2022/07/18 22:42:42;;;;;;;9.60;6.43;;;;;;;16.66;65.04;98338.84;10371494;28;20068;-56
2022/07/18 22:47:41;;;;;;;10.05;6.55;;;;;;;16.58;65.76;98343.34;10375583;28;20075;-56
2022/07/18 22:52:40;;;;;;;9.93;6.40;;;;;;;16.43;65.87;98332.22;10378923;28;20056;-55
2022/07/18 22:57:39;;;;;;;;;;;;;;;16.33;66.05;98341.09;10378860;28;20072;-56
2022/07/18 23:02:39;;;;;;;11.67;7.30;;;;;;;16.05;67.26;98319.69;10377185;28;19909;-56
2022/07/18 23:07:38;;;;;;;12.50;7.22;;;;;;;15.98;67.71;98342.47;10378832;28;20056;-56
2022/07/18 23:12:37;;;;;;;;;;;;;;;15.80;68.77;98334.84;10378427;28;20037;-56
2022/07/18 23:17:36;;;;;;;10.48;6.28;;;;;;;15.61;69.91;98344.63;10377940;28;20022;-55